Time;durP1;ratioP1;P1;durP2;ratioP2;P2;SDS_P1;SDS_P2;PMS_P1;PMS_P2;Temp;Humidity;BMP_temperature;BMP_pressure;BME280_temperature;BME280_humidity;BME280_pressure;Samples;Min_cycle;Max_cycle;Signal;HPM_P1;HPM_P2
2022/03/26 00:00:26;;;;;;;;;;;7.20;99.40;;;;;;2071098;28;19915;-69
2022/03/26 00:01:27;;;;;;;;;;;7.20;98.90;;;;;;2073474;28;19991;-69
2022/03/26 00:02:28;;;;;;;;;;;7.20;98.80;;;;;;2072106;28;19924;-69
2022/03/26 00:03:28;;;;;;;;;;;7.20;98.80;;;;;;2072699;28;19912;-69
2022/03/26 00:04:29;;;;;;;;;;;7.10;99.10;;;;;;2072542;28;19909;-69
2022/03/26 00:05:29;;;;;;;;;;;7.10;98.90;;;;;;2070667;28;20000;-69
2022/03/26 00:06:31;;;;;;;;;;;7.10;99.40;;;;;;2073253;28;19905;-69
2022/03/26 00:07:32;;;;;;;;;;;7.10;99.60;;;;;;2075334;28;19917;-70
2022/03/26 00:08:32;;;;;;;;;;;7.10;99.90;;;;;;2074537;28;20063;-70
2022/03/26 00:09:32;;;;;;;;;;;7.10;99.10;;;;;;2071760;28;19905;-69
2022/03/26 00:10:33;;;;;;;;;;;7.10;98.70;;;;;;2072797;28;19905;-69
2022/03/26 00:11:34;;;;;;;;;;;7.10;99.00;;;;;;2074039;28;20296;-69
2022/03/26 00:12:34;;;;;;;;;;;7.00;99.10;;;;;;2071868;28;19913;-69
2022/03/26 00:13:35;;;;;;;;;;;7.00;99.90;;;;;;2070533;28;20528;-69
2022/03/26 00:14:35;;;;;;;;;;;7.00;99.60;;;;;;2072742;28;19906;-69
2022/03/26 00:15:36;;;;;;;;;;;7.00;99.40;;;;;;2068463;28;19999;-70
2022/03/26 00:16:36;;;;;;;;;;;7.00;99.90;;;;;;2072814;28;20284;-69
2022/03/26 00:17:37;;;;;;;;;;;7.00;99.90;;;;;;2073720;28;20704;-69
2022/03/26 00:18:38;;;;;;;;;;;7.00;99.90;;;;;;2072688;28;20328;-69
2022/03/26 00:19:38;;;;;;;;;;;7.00;99.90;;;;;;2068524;28;19909;-69
2022/03/26 00:20:39;;;;;;;;;;;7.00;99.90;;;;;;2070778;28;19924;-69
2022/03/26 00:21:39;;;;;;;;;;;7.00;99.90;;;;;;2071002;28;20276;-69
2022/03/26 00:22:40;;;;;;;;;;;6.90;99.90;;;;;;2073278;28;20349;-69
2022/03/26 00:23:40;;;;;;;;;;;6.90;99.90;;;;;;2071004;28;19909;-69
2022/03/26 00:24:40;;;;;;;;;;;6.90;99.90;;;;;;2069368;28;19969;-69
2022/03/26 00:25:41;;;;;;;;;;;6.90;99.90;;;;;;2069021;28;19955;-69
2022/03/26 00:26:41;;;;;;;;;;;6.90;99.90;;;;;;2068745;28;20460;-69
2022/03/26 00:27:42;;;;;;;;;;;6.80;99.90;;;;;;2073935;28;19912;-69
2022/03/26 00:28:42;;;;;;;;;;;6.80;99.90;;;;;;2070886;28;19937;-69
2022/03/26 00:29:43;;;;;;;;;;;6.80;99.90;;;;;;2070261;28;19912;-69
2022/03/26 00:30:43;;;;;;;;;;;6.80;99.90;;;;;;2071927;28;19916;-70
2022/03/26 00:31:44;;;;;;;;;;;6.80;99.90;;;;;;2072251;28;19956;-70
2022/03/26 00:32:45;;;;;;;;;;;6.80;99.90;;;;;;2072292;28;20276;-69
2022/03/26 00:33:45;;;;;;;;;;;6.80;99.90;;;;;;2070144;28;19955;-69
2022/03/26 00:34:46;;;;;;;;;;;6.80;99.90;;;;;;2072166;28;19914;-69
2022/03/26 00:35:47;;;;;;;;;;;6.80;99.90;;;;;;2069791;28;19959;-69
2022/03/26 00:36:47;;;;;;;;;;;6.80;99.90;;;;;;2072469;28;20004;-69
2022/03/26 00:37:48;;;;;;;;;;;6.70;99.90;;;;;;2076986;28;19960;-69
2022/03/26 00:38:48;;;;;;;;;;;6.80;99.90;;;;;;2072562;28;19983;-69
2022/03/26 00:39:49;;;;;;;;;;;6.70;99.90;;;;;;2070023;28;19933;-69
2022/03/26 00:40:49;;;;;;;;;;;6.70;99.90;;;;;;2071390;28;19917;-69
2022/03/26 00:41:50;;;;;;;;;;;6.70;99.90;;;;;;2071054;28;19928;-69
2022/03/26 00:42:50;;;;;;;;;;;6.70;99.90;;;;;;2072128;28;19952;-69
2022/03/26 00:43:54;;;;;;;;;;;6.70;99.90;;;;;;2073379;28;19928;-69
2022/03/26 00:44:55;;;;;;;;;;;6.70;99.90;;;;;;2071116;28;20005;-69
2022/03/26 00:45:55;;;;;;;;;;;6.70;99.90;;;;;;2071240;28;19916;-69
2022/03/26 00:46:56;;;;;;;;;;;6.70;99.90;;;;;;2069574;28;19928;-69
2022/03/26 00:47:56;;;;;;;;;;;6.60;99.90;;;;;;2074651;28;19909;-69
2022/03/26 00:48:57;;;;;;;;;;;6.60;99.90;;;;;;2070130;28;20387;-69
2022/03/26 00:49:57;;;;;;;;;;;6.60;99.90;;;;;;2072021;28;19945;-69
2022/03/26 00:50:58;;;;;;;;;;;6.60;99.90;;;;;;2071934;28;19909;-70
2022/03/26 00:51:58;;;;;;;;;;;6.60;99.90;;;;;;2074906;28;19917;-69
2022/03/26 00:52:59;;;;;;;;;;;6.60;99.90;;;;;;2072830;28;19936;-69
2022/03/26 00:53:59;;;;;;;;;;;6.60;99.90;;;;;;2070464;28;20346;-69
2022/03/26 00:55:00;;;;;;;;;;;6.60;99.90;;;;;;2069001;28;19953;-69
2022/03/26 00:56:00;;;;;;;;;;;6.60;99.90;;;;;;2070213;28;19909;-69
2022/03/26 00:57:01;;;;;;;;;;;6.50;99.90;;;;;;2069124;28;19972;-69
2022/03/26 00:58:02;;;;;;;;;;;6.50;99.90;;;;;;2072321;28;19916;-69
2022/03/26 00:59:02;;;;;;;;;;;6.50;99.90;;;;;;2071861;28;20353;-69
2022/03/26 01:00:04;;;;;;;;;;;6.50;99.90;;;;;;2071674;28;19912;-69
2022/03/26 01:01:04;;;;;;;;;;;6.50;99.90;;;;;;2072331;28;20324;-69
2022/03/26 01:02:05;;;;;;;;;;;6.50;99.90;;;;;;2069758;28;19905;-69
2022/03/26 01:03:08;;;;;;;;;;;6.50;99.90;;;;;;2068790;28;19921;-70
2022/03/26 01:04:09;;;;;;;;;;;6.40;99.90;;;;;;2070319;28;19914;-69
2022/03/26 01:05:10;;;;;;;;;;;6.40;99.90;;;;;;2071606;28;19995;-69
2022/03/26 01:06:11;;;;;;;;;;;6.40;99.90;;;;;;2072132;28;19970;-69
2022/03/26 01:07:11;;;;;;;;;;;6.40;99.90;;;;;;2071579;28;19905;-69
2022/03/26 01:08:12;;;;;;;;;;;6.40;99.90;;;;;;2076376;28;19909;-69
2022/03/26 01:09:12;;;;;;;;;;;6.40;99.90;;;;;;2072569;28;20336;-69
2022/03/26 01:10:13;;;;;;;;;;;6.40;99.90;;;;;;2070251;28;19929;-69
2022/03/26 01:11:14;;;;;;;;;;;6.30;99.90;;;;;;2072878;28;20323;-70
2022/03/26 01:12:14;;;;;;;;;;;6.40;99.90;;;;;;2070582;28;19910;-69
2022/03/26 01:13:15;;;;;;;;;;;6.30;99.90;;;;;;2072363;28;19916;-69
2022/03/26 01:14:15;;;;;;;;;;;6.30;99.90;;;;;;2072755;28;19913;-69
2022/03/26 01:15:17;;;;;;;;;;;6.30;99.90;;;;;;2070007;28;20562;-69
2022/03/26 01:16:17;;;;;;;;;;;6.30;99.90;;;;;;2070112;28;19906;-69
2022/03/26 01:17:18;;;;;;;;;;;6.30;99.90;;;;;;2070708;28;20040;-69
2022/03/26 01:18:18;;;;;;;;;;;6.30;99.90;;;;;;2073683;28;20520;-69
2022/03/26 01:19:19;;;;;;;;;;;6.30;99.90;;;;;;2069568;28;20356;-69
2022/03/26 01:20:20;;;;;;;;;;;6.30;99.90;;;;;;2073909;28;19917;-69
2022/03/26 01:21:20;;;;;;;;;;;6.30;99.90;;;;;;2072377;28;19960;-69
2022/03/26 01:22:21;;;;;;;;;;;6.30;99.90;;;;;;2072572;28;19912;-69
2022/03/26 01:23:21;;;;;;;;;;;6.20;99.90;;;;;;2068941;28;19920;-69
2022/03/26 01:24:22;;;;;;;;;;;6.20;99.90;;;;;;2070501;28;19999;-69
2022/03/26 01:25:22;;;;;;;;;;;6.20;99.90;;;;;;2069741;28;19933;-69
2022/03/26 01:26:25;;;;;;;;;;;6.20;99.90;;;;;;2070517;28;19909;-69
2022/03/26 01:27:26;;;;;;;;;;;6.20;99.90;;;;;;2071997;28;20440;-69
2022/03/26 01:28:26;;;;;;;;;;;6.20;99.90;;;;;;2072504;28;20356;-69
2022/03/26 01:29:26;;;;;;;;;;;6.20;99.90;;;;;;2072826;28;19935;-69
2022/03/26 01:30:27;;;;;;;;;;;6.20;99.90;;;;;;2072662;28;20381;-69
2022/03/26 01:31:27;;;;;;;;;;;6.20;99.90;;;;;;2071328;28;20332;-69
2022/03/26 01:32:28;;;;;;;;;;;6.20;99.90;;;;;;2072455;28;19910;-69
2022/03/26 01:33:29;;;;;;;;;;;6.20;99.90;;;;;;2071306;28;19913;-69
2022/03/26 01:34:29;;;;;;;;;;;6.10;99.90;;;;;;2072627;28;20000;-69
2022/03/26 01:35:29;;;;;;;;;;;6.10;99.90;;;;;;2072287;28;19913;-69
2022/03/26 01:36:30;;;;;;;;;;;6.10;99.90;;;;;;2068746;28;19912;-69
2022/03/26 01:37:30;;;;;;;;;;;6.10;99.90;;;;;;2072054;28;19912;-69
2022/03/26 01:38:31;;;;;;;;;;;6.10;99.90;;;;;;2075586;28;20004;-70
2022/03/26 01:39:32;;;;;;;;;;;6.10;99.90;;;;;;2072887;28;19988;-69
2022/03/26 01:40:33;;;;;;;;;;;6.10;99.90;;;;;;2072141;28;19917;-70
2022/03/26 01:41:34;;;;;;;;;;;6.10;99.90;;;;;;2070021;28;19915;-69
2022/03/26 01:42:34;;;;;;;;;;;6.10;99.90;;;;;;2070881;28;19916;-69
2022/03/26 01:43:35;;;;;;;;;;;6.10;99.90;;;;;;2072015;28;20238;-69
2022/03/26 01:44:36;;;;;;;;;;;6.00;99.90;;;;;;2067382;28;19928;-69
2022/03/26 01:45:37;;;;;;;;;;;6.10;99.90;;;;;;2071456;28;19905;-69
2022/03/26 01:46:47;;;;;;;;;;;6.10;99.90;;;;;;2072299;28;20424;-69
2022/03/26 01:47:48;;;;;;;;;;;6.00;99.90;;;;;;2072704;28;20329;-69
2022/03/26 01:48:49;;;;;;;;;;;6.00;99.90;;;;;;2072272;28;19917;-69
2022/03/26 01:49:51;;;;;;;;;;;6.00;99.90;;;;;;2069475;28;20008;-69
2022/03/26 01:50:51;;;;;;;;;;;6.00;99.90;;;;;;2068895;28;19984;-69
2022/03/26 01:51:52;;;;;;;;;;;6.00;99.90;;;;;;2070622;28;19909;-69
2022/03/26 01:52:52;;;;;;;;;;;6.00;99.90;;;;;;2070689;28;19925;-69
2022/03/26 01:53:53;;;;;;;;;;;6.00;99.90;;;;;;2071738;28;19906;-69
2022/03/26 01:54:53;;;;;;;;;;;6.00;99.90;;;;;;2071251;28;19906;-69
2022/03/26 01:55:54;;;;;;;;;;;6.00;99.90;;;;;;2070159;28;20383;-69
2022/03/26 01:56:55;;;;;;;;;;;6.00;99.90;;;;;;2067775;28;19956;-69
2022/03/26 01:57:55;;;;;;;;;;;6.00;99.90;;;;;;2071236;28;19944;-69
2022/03/26 01:58:57;;;;;;;;;;;6.00;99.90;;;;;;2070145;28;19913;-69
2022/03/26 01:59:57;;;;;;;;;;;6.00;99.90;;;;;;2069543;28;19952;-70
2022/03/26 02:00:58;;;;;;;;;;;6.00;99.90;;;;;;2071476;28;19909;-69
2022/03/26 02:01:58;;;;;;;;;;;6.00;99.90;;;;;;2075666;28;19916;-69
2022/03/26 02:02:59;;;;;;;;;;;6.00;99.90;;;;;;2071012;28;19909;-69
2022/03/26 02:04:04;;;;;;;;;;;6.00;99.90;;;;;;2062457;28;20357;-69
2022/03/26 02:05:04;;;;;;;;;;;6.00;99.90;;;;;;2061966;28;19992;-70
2022/03/26 02:06:05;;;;;;;;;;;5.90;99.90;;;;;;2066812;28;19914;-69
2022/03/26 02:07:05;;;;;;;;;;;5.90;99.90;;;;;;2063120;28;19964;-69
2022/03/26 02:08:06;;;;;;;;;;;5.90;99.90;;;;;;2068717;28;19913;-69
2022/03/26 02:09:08;;;;;;;;;;;5.90;99.90;;;;;;2071411;28;19956;-69
2022/03/26 02:10:10;;;;;;;;;;;5.90;99.90;;;;;;2068269;28;19920;-69
2022/03/26 02:11:10;;;;;;;;;;;5.90;99.90;;;;;;2069583;28;19909;-69
2022/03/26 02:12:31;;;;;;;;;;;5.90;99.90;;;;;;2071840;28;19906;-69
2022/03/26 02:13:47;;;;;;;;;;;5.90;99.90;;;;;;2069885;28;20119;-69
2022/03/26 02:14:47;;;;;;;;;;;5.90;99.90;;;;;;2069011;28;19909;-69
2022/03/26 02:15:48;;;;;;;;;;;5.90;99.90;;;;;;2070989;28;20541;-69
2022/03/26 02:16:48;;;;;;;;;;;5.90;99.90;;;;;;2072368;28;20442;-69
2022/03/26 02:17:49;;;;;;;;;;;5.80;99.90;;;;;;2072156;28;19913;-69
2022/03/26 02:18:50;;;;;;;;;;;5.80;99.90;;;;;;2073947;28;20296;-69
2022/03/26 02:19:52;;;;;;;;;;;5.80;99.90;;;;;;2070371;28;19912;-69
2022/03/26 02:20:52;;;;;;;;;;;5.80;99.90;;;;;;2070287;28;19964;-69
2022/03/26 02:21:52;;;;;;;;;;;5.80;99.90;;;;;;2070307;28;19906;-69
2022/03/26 02:22:53;;;;;;;;;;;5.80;99.90;;;;;;2070489;28;20057;-69
2022/03/26 02:23:53;;;;;;;;;;;5.80;99.90;;;;;;2072098;28;19959;-69
2022/03/26 02:24:54;;;;;;;;;;;5.80;99.90;;;;;;2071612;28;19909;-69
2022/03/26 02:25:55;;;;;;;;;;;5.70;99.90;;;;;;2070777;28;19912;-69
2022/03/26 02:26:55;;;;;;;;;;;5.70;99.90;;;;;;2070706;28;20004;-69
2022/03/26 02:27:56;;;;;;;;;;;5.70;99.90;;;;;;2071016;28;20349;-69
2022/03/26 02:28:57;;;;;;;;;;;5.70;99.90;;;;;;2070398;28;19936;-69
2022/03/26 02:29:57;;;;;;;;;;;5.70;99.90;;;;;;2070165;28;20380;-69
2022/03/26 02:30:58;;;;;;;;;;;5.70;99.90;;;;;;2069888;28;20364;-69
2022/03/26 02:31:58;;;;;;;;;;;5.70;99.90;;;;;;2071094;28;19917;-69
2022/03/26 02:32:59;;;;;;;;;;;5.70;99.90;;;;;;2074338;28;19926;-69
2022/03/26 02:33:59;;;;;;;;;;;5.70;99.90;;;;;;2070834;28;19909;-69
2022/03/26 02:35:00;;;;;;;;;;;5.70;99.90;;;;;;2071496;28;19913;-69
2022/03/26 02:36:00;;;;;;;;;;;5.60;99.90;;;;;;2071238;28;19913;-69
2022/03/26 02:37:01;;;;;;;;;;;5.70;99.90;;;;;;2069627;28;19906;-69
2022/03/26 02:38:01;;;;;;;;;;;5.60;99.90;;;;;;2069564;28;19957;-69
2022/03/26 02:39:03;;;;;;;;;;;5.60;99.90;;;;;;2069613;28;20314;-69
2022/03/26 02:40:06;;;;;;;;;;;5.60;99.90;;;;;;2071165;28;20312;-69
2022/03/26 02:41:07;;;;;;;;;;;5.60;99.90;;;;;;2071585;28;19909;-69
2022/03/26 02:42:08;;;;;;;;;;;5.60;99.90;;;;;;2065559;28;20341;-69
2022/03/26 02:43:09;;;;;;;;;;;5.60;99.90;;;;;;2072326;28;19936;-69
2022/03/26 02:44:09;;;;;;;;;;;5.60;99.90;;;;;;2069732;28;20435;-69
2022/03/26 02:45:10;;;;;;;;;;;5.60;99.90;;;;;;2071798;28;19909;-69
2022/03/26 02:46:10;;;;;;;;;;;5.60;99.90;;;;;;2074814;28;20030;-69
2022/03/26 02:47:11;;;;;;;;;;;5.60;99.90;;;;;;2069247;28;19909;-69
2022/03/26 02:48:13;;;;;;;;;;;5.60;99.90;;;;;;2072297;28;19905;-69
2022/03/26 02:49:14;;;;;;;;;;;5.60;99.90;;;;;;2069868;28;20367;-69
2022/03/26 02:50:14;;;;;;;;;;;5.60;99.90;;;;;;2069900;28;19909;-69
2022/03/26 02:51:15;;;;;;;;;;;5.50;99.90;;;;;;2069374;28;20008;-69
2022/03/26 02:52:16;;;;;;;;;;;5.50;99.90;;;;;;2069423;28;19921;-69
2022/03/26 02:53:16;;;;;;;;;;;5.50;99.90;;;;;;2071686;28;19906;-69
2022/03/26 02:54:19;;;;;;;;;;;5.50;99.90;;;;;;2069452;28;19956;-69
2022/03/26 02:55:20;;;;;;;;;;;5.50;99.90;;;;;;2071639;28;19917;-69
2022/03/26 02:56:20;;;;;;;;;;;5.50;99.90;;;;;;2072264;28;19910;-69
2022/03/26 02:57:21;;;;;;;;;;;5.50;99.90;;;;;;2067289;28;20000;-69
2022/03/26 02:58:21;;;;;;;;;;;5.50;99.90;;;;;;2069906;28;19910;-69
2022/03/26 02:59:22;;;;;;;;;;;5.50;99.90;;;;;;2071088;28;19932;-69
2022/03/26 03:00:22;;;;;;;;;;;5.50;99.90;;;;;;2071663;28;19918;-69
2022/03/26 03:01:23;;;;;;;;;;;5.40;99.90;;;;;;2072986;28;19905;-69
2022/03/26 03:02:24;;;;;;;;;;;5.40;99.90;;;;;;2068755;28;19956;-69
2022/03/26 03:03:24;;;;;;;;;;;5.40;99.90;;;;;;2071865;28;19909;-69
2022/03/26 03:04:25;;;;;;;;;;;5.40;99.90;;;;;;2071731;28;19913;-69
2022/03/26 03:05:26;;;;;;;;;;;5.40;99.90;;;;;;2073984;28;19952;-69
2022/03/26 03:06:26;;;;;;;;;;;5.40;99.90;;;;;;2072265;28;19912;-69
2022/03/26 03:07:27;;;;;;;;;;;5.40;99.90;;;;;;2070351;28;19920;-69
2022/03/26 03:08:27;;;;;;;;;;;5.40;99.90;;;;;;2069677;28;19913;-69
2022/03/26 03:09:28;;;;;;;;;;;5.40;99.90;;;;;;2071942;28;19964;-69
2022/03/26 03:10:30;;;;;;;;;;;5.40;99.90;;;;;;2069243;28;20574;-69
2022/03/26 03:11:31;;;;;;;;;;;5.40;99.90;;;;;;2073389;28;20675;-69
2022/03/26 03:12:31;;;;;;;;;;;5.40;99.90;;;;;;2073958;28;19928;-69
2022/03/26 03:13:31;;;;;;;;;;;5.30;99.90;;;;;;2072447;28;19909;-69
2022/03/26 03:14:32;;;;;;;;;;;5.30;99.90;;;;;;2071700;28;19910;-69
2022/03/26 03:15:33;;;;;;;;;;;5.30;99.90;;;;;;2073828;28;20388;-69
2022/03/26 03:16:33;;;;;;;;;;;5.30;99.90;;;;;;2071462;28;19967;-69
2022/03/26 03:17:37;;;;;;;;;;;5.30;99.90;;;;;;2073211;28;19941;-69
2022/03/26 03:18:38;;;;;;;;;;;5.30;99.90;;;;;;2069912;28;19913;-69
2022/03/26 03:19:38;;;;;;;;;;;5.30;99.90;;;;;;2069786;28;20348;-69
2022/03/26 03:20:39;;;;;;;;;;;5.30;99.90;;;;;;2073690;28;19920;-69
2022/03/26 03:21:39;;;;;;;;;;;5.30;99.90;;;;;;2072202;28;19909;-69
2022/03/26 03:22:40;;;;;;;;;;;5.30;99.90;;;;;;2073717;28;19909;-69
2022/03/26 03:23:40;;;;;;;;;;;5.30;99.90;;;;;;2071459;28;19906;-69
2022/03/26 03:24:41;;;;;;;;;;;5.30;99.90;;;;;;2070693;28;19909;-69
2022/03/26 03:25:41;;;;;;;;;;;5.30;99.90;;;;;;2073482;28;19906;-69
2022/03/26 03:26:42;;;;;;;;;;;5.20;99.90;;;;;;2072926;28;19906;-69
2022/03/26 03:27:42;;;;;;;;;;;5.20;99.90;;;;;;2073354;28;20498;-69
2022/03/26 03:28:43;;;;;;;;;;;5.20;99.90;;;;;;2072644;28;19909;-69
2022/03/26 03:29:43;;;;;;;;;;;5.20;99.90;;;;;;2072428;28;20000;-69
2022/03/26 03:30:44;;;;;;;;;;;5.20;99.90;;;;;;2074336;28;19909;-69
2022/03/26 03:31:47;;;;;;;;;;;5.20;99.90;;;;;;2071444;28;19905;-69
2022/03/26 03:32:47;;;;;;;;;;;5.20;99.90;;;;;;2070072;28;19951;-69
2022/03/26 03:33:48;;;;;;;;;;;5.20;99.90;;;;;;2070377;28;19956;-69
2022/03/26 03:34:48;;;;;;;;;;;5.20;99.90;;;;;;2070415;28;19905;-69
2022/03/26 03:35:49;;;;;;;;;;;5.20;99.90;;;;;;2073561;28;19920;-69
2022/03/26 03:36:50;;;;;;;;;;;5.20;99.90;;;;;;2073087;28;20448;-69
2022/03/26 03:37:51;;;;;;;;;;;5.20;99.90;;;;;;2074082;28;20280;-69
2022/03/26 03:38:51;;;;;;;;;;;5.10;99.90;;;;;;2072905;28;19932;-69
2022/03/26 03:39:52;;;;;;;;;;;5.20;99.90;;;;;;2071235;28;19910;-69
2022/03/26 03:40:52;;;;;;;;;;;5.20;99.90;;;;;;2072258;28;19916;-69
2022/03/26 03:41:53;;;;;;;;;;;5.20;99.90;;;;;;2069961;28;19912;-69
2022/03/26 03:42:54;;;;;;;;;;;5.10;99.90;;;;;;2072441;28;19913;-69
2022/03/26 03:43:55;;;;;;;;;;;5.10;99.90;;;;;;2073265;28;20355;-69
2022/03/26 03:44:55;;;;;;;;;;;5.10;99.90;;;;;;2073448;28;19964;-69
2022/03/26 03:45:56;;;;;;;;;;;5.10;99.90;;;;;;2072931;28;19917;-69
2022/03/26 03:46:56;;;;;;;;;;;5.10;99.90;;;;;;2071784;28;20316;-69
2022/03/26 03:47:57;;;;;;;;;;;5.10;99.90;;;;;;2073220;28;20269;-69
2022/03/26 03:48:58;;;;;;;;;;;5.10;99.90;;;;;;2071321;28;19960;-69
2022/03/26 03:49:59;;;;;;;;;;;5.10;99.90;;;;;;2072420;28;20381;-69
2022/03/26 03:50:59;;;;;;;;;;;5.10;99.90;;;;;;2073064;28;19909;-69
2022/03/26 03:52:00;;;;;;;;;;;5.10;99.90;;;;;;2073679;28;19905;-69
2022/03/26 03:53:00;;;;;;;;;;;5.00;99.90;;;;;;2072425;28;19912;-69
2022/03/26 03:54:01;;;;;;;;;;;5.00;99.90;;;;;;2072567;28;19905;-69
2022/03/26 03:55:02;;;;;;;;;;;5.00;99.90;;;;;;2074008;28;19944;-69
2022/03/26 03:56:02;;;;;;;;;;;5.00;99.90;;;;;;2072698;28;19909;-69
2022/03/26 03:57:03;;;;;;;;;;;5.00;99.90;;;;;;2073502;28;19906;-69
2022/03/26 03:58:03;;;;;;;;;;;5.00;99.90;;;;;;2071180;28;19939;-69
2022/03/26 03:59:04;;;;;;;;;;;5.00;99.90;;;;;;2072981;28;19910;-69
2022/03/26 04:00:06;;;;;;;;;;;5.00;99.90;;;;;;2072586;28;19906;-69
2022/03/26 04:01:06;;;;;;;;;;;5.00;99.90;;;;;;2073507;28;19959;-69
2022/03/26 04:02:10;;;;;;;;;;;5.00;99.90;;;;;;2071476;28;19952;-69
2022/03/26 04:03:10;;;;;;;;;;;5.00;99.90;;;;;;2070946;28;19910;-69
2022/03/26 04:04:11;;;;;;;;;;;5.00;99.90;;;;;;2072709;28;19991;-69
2022/03/26 04:05:11;;;;;;;;;;;5.00;99.90;;;;;;2074603;28;19923;-69
2022/03/26 04:06:12;;;;;;;;;;;4.90;99.90;;;;;;2071638;28;20369;-69
2022/03/26 04:07:12;;;;;;;;;;;4.90;99.90;;;;;;2070143;28;19910;-69
2022/03/26 04:08:13;;;;;;;;;;;4.90;99.90;;;;;;2069614;28;19928;-69
2022/03/26 04:09:13;;;;;;;;;;;4.90;99.90;;;;;;2073499;28;19952;-69
2022/03/26 04:10:14;;;;;;;;;;;4.90;99.90;;;;;;2071054;28;19905;-69
2022/03/26 04:11:14;;;;;;;;;;;4.90;99.90;;;;;;2070851;28;20313;-69
2022/03/26 04:12:15;;;;;;;;;;;4.90;99.90;;;;;;2072459;28;19988;-69
2022/03/26 04:13:16;;;;;;;;;;;4.90;99.90;;;;;;2069746;28;19906;-69
2022/03/26 04:14:16;;;;;;;;;;;4.90;99.90;;;;;;2071623;28;19952;-69
2022/03/26 04:15:17;;;;;;;;;;;4.90;99.90;;;;;;2070865;28;19913;-69
2022/03/26 04:16:17;;;;;;;;;;;4.90;99.90;;;;;;2072392;28;19959;-69
2022/03/26 04:17:18;;;;;;;;;;;4.90;99.90;;;;;;2073276;28;19906;-69
2022/03/26 04:18:18;;;;;;;;;;;4.90;99.90;;;;;;2070988;28;19905;-69
2022/03/26 04:19:19;;;;;;;;;;;4.90;99.90;;;;;;2073067;28;19913;-69
2022/03/26 04:20:19;;;;;;;;;;;4.90;99.90;;;;;;2071168;28;20028;-69
2022/03/26 04:21:19;;;;;;;;;;;4.90;99.90;;;;;;2073240;28;19909;-69
2022/03/26 04:22:20;;;;;;;;;;;4.90;99.90;;;;;;2072074;28;19909;-69
2022/03/26 04:23:21;;;;;;;;;;;4.80;99.90;;;;;;2074491;28;19909;-69
2022/03/26 04:24:21;;;;;;;;;;;4.80;99.90;;;;;;2072053;28;19956;-69
2022/03/26 04:25:22;;;;;;;;;;;4.90;99.90;;;;;;2072474;28;19909;-69
2022/03/26 04:26:22;;;;;;;;;;;4.80;99.90;;;;;;2071013;28;19905;-69
2022/03/26 04:27:23;;;;;;;;;;;4.80;99.90;;;;;;2075863;28;20333;-69
2022/03/26 04:28:23;;;;;;;;;;;4.80;99.90;;;;;;2070056;28;19906;-68
2022/03/26 04:29:24;;;;;;;;;;;4.80;99.90;;;;;;2069549;28;19956;-69
2022/03/26 04:30:24;;;;;;;;;;;4.80;99.90;;;;;;2072058;28;19910;-69
2022/03/26 04:31:25;;;;;;;;;;;4.80;99.90;;;;;;2072443;28;19913;-69
2022/03/26 04:32:25;;;;;;;;;;;4.70;99.90;;;;;;2072063;28;20304;-69
2022/03/26 04:33:26;;;;;;;;;;;4.80;99.90;;;;;;2072360;28;19917;-69
2022/03/26 04:34:26;;;;;;;;;;;4.70;99.90;;;;;;2071254;28;20381;-69
2022/03/26 04:35:27;;;;;;;;;;;4.70;99.90;;;;;;2072068;28;19913;-69
2022/03/26 04:36:30;;;;;;;;;;;4.70;99.90;;;;;;2069821;28;19964;-69
2022/03/26 04:37:33;;;;;;;;;;;4.70;99.90;;;;;;2069454;28;19909;-69
2022/03/26 04:38:33;;;;;;;;;;;4.70;99.90;;;;;;2070929;28;19979;-69
2022/03/26 04:39:34;;;;;;;;;;;4.70;99.90;;;;;;2072189;28;20017;-69
2022/03/26 04:40:35;;;;;;;;;;;4.70;99.90;;;;;;2071834;28;19913;-69
2022/03/26 04:41:35;;;;;;;;;;;4.70;99.90;;;;;;2071701;28;19913;-69
2022/03/26 04:42:36;;;;;;;;;;;4.70;99.90;;;;;;2070979;28;20590;-69
2022/03/26 04:43:36;;;;;;;;;;;4.70;99.90;;;;;;2074109;28;19967;-69
2022/03/26 04:44:37;;;;;;;;;;;4.70;99.90;;;;;;2069857;28;19916;-69
2022/03/26 04:45:37;;;;;;;;;;;4.70;99.90;;;;;;2072266;28;19909;-69
2022/03/26 04:46:38;;;;;;;;;;;4.60;99.90;;;;;;2070730;28;19951;-69
2022/03/26 04:47:39;;;;;;;;;;;4.60;99.90;;;;;;2072746;28;19905;-69
2022/03/26 04:48:39;;;;;;;;;;;4.60;99.90;;;;;;2073146;28;19909;-69
2022/03/26 04:49:40;;;;;;;;;;;4.70;99.90;;;;;;2071025;28;19996;-69
2022/03/26 04:50:41;;;;;;;;;;;4.60;99.90;;;;;;2071083;28;20250;-69
2022/03/26 04:51:41;;;;;;;;;;;4.60;99.90;;;;;;2072406;28;19909;-69
2022/03/26 04:52:42;;;;;;;;;;;4.60;99.90;;;;;;2069869;28;19928;-70
2022/03/26 04:53:42;;;;;;;;;;;4.60;99.90;;;;;;2072172;28;19972;-69
2022/03/26 04:54:43;;;;;;;;;;;4.60;99.90;;;;;;2072132;28;19920;-69
2022/03/26 04:55:43;;;;;;;;;;;4.60;99.90;;;;;;2071202;28;19941;-69
2022/03/26 04:56:44;;;;;;;;;;;4.60;99.90;;;;;;2070668;28;19912;-69
2022/03/26 04:57:47;;;;;;;;;;;4.60;99.90;;;;;;2066222;28;19975;-69
2022/03/26 04:58:48;;;;;;;;;;;4.60;99.90;;;;;;2070181;28;19905;-69
2022/03/26 04:59:49;;;;;;;;;;;4.60;99.90;;;;;;2070367;28;19910;-68
2022/03/26 05:00:49;;;;;;;;;;;4.60;99.90;;;;;;2070617;28;19924;-69
2022/03/26 05:01:50;;;;;;;;;;;4.50;99.90;;;;;;2071034;28;20349;-69
2022/03/26 05:02:50;;;;;;;;;;;4.50;99.90;;;;;;2071067;28;19950;-69
2022/03/26 05:03:51;;;;;;;;;;;4.50;99.90;;;;;;2073411;28;19932;-69
2022/03/26 05:04:51;;;;;;;;;;;4.50;99.90;;;;;;2073095;28;19905;-69
2022/03/26 05:05:52;;;;;;;;;;;4.50;99.90;;;;;;2070131;28;19909;-69
2022/03/26 05:06:52;;;;;;;;;;;4.50;99.90;;;;;;2072811;28;19909;-69
2022/03/26 05:07:55;;;;;;;;;;;4.50;99.90;;;;;;2070694;28;19914;-69
2022/03/26 05:08:56;;;;;;;;;;;4.50;99.90;;;;;;2071122;28;20567;-69
2022/03/26 05:09:56;;;;;;;;;;;4.50;99.90;;;;;;2072940;28;20242;-69
2022/03/26 05:10:56;;;;;;;;;;;4.50;99.90;;;;;;2072063;28;19909;-69
2022/03/26 05:11:57;;;;;;;;;;;4.50;99.90;;;;;;2072052;28;20353;-69
2022/03/26 05:12:58;;;;;;;;;;;4.50;99.90;;;;;;2071536;28;20305;-68
2022/03/26 05:13:59;;;;;;;;;;;4.50;99.90;;;;;;2073496;28;19909;-69
2022/03/26 05:14:59;;;;;;;;;;;4.50;99.90;;;;;;2068850;28;20008;-69
2022/03/26 05:16:00;;;;;;;;;;;4.40;99.90;;;;;;2070862;28;20011;-69
2022/03/26 05:17:00;;;;;;;;;;;4.40;99.90;;;;;;2070807;28;20324;-69
2022/03/26 05:18:01;;;;;;;;;;;4.40;99.90;;;;;;2072907;28;20047;-69
2022/03/26 05:19:01;;;;;;;;;;;4.40;99.90;;;;;;2071834;28;19912;-69
2022/03/26 05:20:03;;;;;;;;;;;4.40;99.90;;;;;;2070614;28;19928;-69
2022/03/26 05:21:04;;;;;;;;;;;4.40;99.90;;;;;;2069867;28;19906;-68
2022/03/26 05:22:04;;;;;;;;;;;4.40;99.90;;;;;;2071815;28;19914;-69
2022/03/26 05:23:05;;;;;;;;;;;4.40;99.90;;;;;;2070487;28;19906;-69
2022/03/26 05:24:06;;;;;;;;;;;4.40;99.90;;;;;;2073426;28;20319;-69
2022/03/26 05:25:07;;;;;;;;;;;4.40;99.90;;;;;;2069464;28;19910;-69
2022/03/26 05:26:07;;;;;;;;;;;4.40;99.90;;;;;;2068157;28;19905;-69
2022/03/26 05:27:08;;;;;;;;;;;4.40;99.90;;;;;;2072605;28;20273;-68
2022/03/26 05:28:08;;;;;;;;;;;4.40;99.90;;;;;;2071090;28;19931;-69
2022/03/26 05:29:09;;;;;;;;;;;4.40;99.90;;;;;;2070566;28;20305;-69
2022/03/26 05:30:10;;;;;;;;;;;4.40;99.90;;;;;;2071969;28;20016;-69
2022/03/26 05:31:10;;;;;;;;;;;4.40;99.90;;;;;;2069700;28;19913;-69
2022/03/26 05:32:11;;;;;;;;;;;4.40;99.90;;;;;;2072772;28;19906;-69
2022/03/26 05:33:11;;;;;;;;;;;4.40;99.90;;;;;;2069367;28;20510;-69
2022/03/26 05:34:12;;;;;;;;;;;4.30;99.90;;;;;;2071238;28;19905;-69
2022/03/26 05:35:16;;;;;;;;;;;4.40;99.90;;;;;;2071049;28;19964;-69
2022/03/26 05:36:16;;;;;;;;;;;4.40;99.90;;;;;;2073663;28;19917;-69
2022/03/26 05:37:18;;;;;;;;;;;4.30;99.90;;;;;;2072381;28;20384;-69
2022/03/26 05:38:18;;;;;;;;;;;4.40;99.90;;;;;;2071017;28;19909;-68
2022/03/26 05:39:19;;;;;;;;;;;4.40;99.90;;;;;;2069277;28;20000;-69
2022/03/26 05:40:20;;;;;;;;;;;4.30;99.90;;;;;;2071613;28;20059;-69
2022/03/26 05:41:24;;;;;;;;;;;4.40;99.90;;;;;;2063514;28;19925;-69
2022/03/26 05:42:24;;;;;;;;;;;4.40;99.90;;;;;;2070270;28;19913;-69
2022/03/26 05:43:26;;;;;;;;;;;4.40;99.90;;;;;;2072064;28;19925;-69
2022/03/26 05:44:26;;;;;;;;;;;4.30;99.90;;;;;;2071133;28;19906;-69
2022/03/26 05:45:26;;;;;;;;;;;4.40;99.90;;;;;;2071393;28;19912;-69
2022/03/26 05:46:27;;;;;;;;;;;4.40;99.90;;;;;;2070059;28;20361;-70
2022/03/26 05:47:29;;;;;;;;;;;4.30;99.90;;;;;;2070583;28;19924;-69
2022/03/26 05:48:29;;;;;;;;;;;4.40;99.90;;;;;;2072009;28;19914;-69
2022/03/26 05:49:30;;;;;;;;;;;4.40;99.90;;;;;;2068755;28;20012;-69
2022/03/26 05:50:30;;;;;;;;;;;4.40;99.90;;;;;;2071669;28;19920;-69
2022/03/26 05:51:31;;;;;;;;;;;4.40;99.90;;;;;;2071071;28;19943;-69
2022/03/26 05:52:31;;;;;;;;;;;4.40;99.90;;;;;;2067304;28;19913;-69
2022/03/26 05:53:32;;;;;;;;;;;4.40;99.90;;;;;;2069487;28;19944;-69
2022/03/26 05:54:32;;;;;;;;;;;4.40;99.90;;;;;;2069572;28;20355;-69
2022/03/26 05:55:33;;;;;;;;;;;4.40;99.90;;;;;;2065232;28;19928;-69
2022/03/26 05:56:36;;;;;;;;;;;4.40;99.90;;;;;;2070562;28;19905;-69
2022/03/26 05:57:37;;;;;;;;;;;4.40;99.90;;;;;;2068130;28;19912;-69
2022/03/26 05:58:37;;;;;;;;;;;4.40;99.90;;;;;;2068375;28;19952;-69
2022/03/26 05:59:38;;;;;;;;;;;4.40;99.90;;;;;;2072283;28;19905;-69